createdAt,value
2017-09-17T00:00:53.219Z,90.56
2017-09-17T00:01:53.216Z,90.47
2017-09-17T00:02:53.206Z,90.75
2017-09-17T00:03:53.206Z,90.28
2017-09-17T00:04:53.205Z,90.37
2017-09-17T00:05:53.215Z,90.28
2017-09-17T00:06:53.203Z,90.37
2017-09-17T00:07:53.200Z,90.75
2017-09-17T00:08:53.197Z,90.19
2017-09-17T00:09:53.193Z,90.23
2017-09-17T00:10:53.190Z,89.71
2017-09-17T00:11:53.189Z,89.80
2017-09-17T00:12:53.185Z,89.42
2017-09-17T00:13:53.185Z,89.71
2017-09-17T00:14:53.183Z,89.71
2017-09-17T00:15:53.180Z,89.80
2017-09-17T00:16:53.177Z,90.00
2017-09-17T00:17:53.175Z,90.28
2017-09-17T00:18:53.177Z,90.19
2017-09-17T00:19:53.170Z,90.28
2017-09-17T00:20:53.167Z,90.19
2017-09-17T00:21:53.169Z,90.19
2017-09-17T00:22:53.161Z,90.47
2017-09-17T00:23:53.161Z,90.37
2017-09-17T00:24:53.160Z,90.28
2017-09-17T00:25:53.158Z,90.09
2017-09-17T00:26:53.153Z,90.28
2017-09-17T00:27:53.152Z,90.28
2017-09-17T00:28:53.148Z,90.19
2017-09-17T00:29:53.157Z,90.00
2017-09-17T00:30:53.142Z,89.90
2017-09-17T00:31:53.161Z,90.19
2017-09-17T00:32:53.137Z,90.09
2017-09-17T00:33:53.137Z,90.09
2017-09-17T00:34:53.133Z,90.00
2017-09-17T00:35:53.133Z,90.00
2017-09-17T00:36:53.128Z,90.19
2017-09-17T00:37:53.124Z,90.19
2017-09-17T00:38:53.120Z,90.09
2017-09-17T00:39:53.120Z,90.00
2017-09-17T00:40:53.117Z,90.00
2017-09-17T00:41:53.117Z,90.28
2017-09-17T00:42:53.113Z,90.00
2017-09-17T00:43:53.107Z,90.00
2017-09-17T00:44:53.110Z,90.19
2017-09-17T00:45:53.103Z,89.90
2017-09-17T00:46:53.101Z,89.90
2017-09-17T00:47:53.098Z,89.90
2017-09-17T00:48:53.102Z,90.00
2017-09-17T00:49:53.095Z,90.19
2017-09-17T00:50:53.095Z,90.75
2017-09-17T00:51:53.086Z,90.37
2017-09-17T00:52:53.090Z,90.23
2017-09-17T00:53:53.076Z,90.28
2017-09-17T00:54:53.102Z,90.09
2017-09-17T00:55:53.075Z,90.19
2017-09-17T00:56:53.074Z,90.09
2017-09-17T00:57:53.075Z,89.80
2017-09-17T00:58:53.066Z,89.61
2017-09-17T00:59:53.071Z,89.33
2017-09-17T01:00:53.063Z,89.71
2017-09-17T01:01:53.060Z,89.61
2017-09-17T01:02:53.057Z,89.33
2017-09-17T01:03:53.051Z,89.33
2017-09-17T01:04:53.066Z,89.04
2017-09-17T01:05:53.047Z,89.04
2017-09-17T01:06:53.045Z,89.33
2017-09-17T01:07:53.045Z,89.33
2017-09-17T01:08:53.042Z,89.90
2017-09-17T01:09:53.040Z,89.90
2017-09-17T01:10:53.036Z,90.28
2017-09-17T01:11:53.040Z,90.09
2017-09-17T01:14:16.103Z,89.76
2017-09-17T01:15:16.080Z,90.00
2017-09-17T01:17:09.572Z,90.09
2017-09-17T01:18:09.443Z,90.14
2017-09-17T01:19:09.447Z,90.09
2017-09-17T01:20:09.440Z,90.14
2017-09-17T01:21:09.436Z,90.23
2017-09-17T01:22:09.436Z,89.95
2017-09-17T01:23:09.431Z,90.05
2017-09-17T01:24:09.429Z,89.86
2017-09-17T01:25:09.426Z,90.23
2017-09-17T01:26:09.422Z,89.61
2017-09-17T01:27:09.423Z,89.04
2017-09-17T01:28:09.419Z,89.33
2017-09-17T01:29:09.418Z,89.09
2017-09-17T01:30:09.409Z,89.14
2017-09-17T01:31:09.410Z,89.76
2017-09-17T01:32:09.407Z,89.47
2017-09-17T01:33:09.404Z,89.47
2017-09-17T01:34:09.405Z,89.28
2017-09-17T01:35:09.401Z,89.76
2017-09-17T01:36:09.397Z,89.09
2017-09-17T01:37:09.392Z,89.86
2017-09-17T01:38:09.393Z,89.67
2017-09-17T01:39:09.405Z,89.95
2017-09-17T01:40:09.387Z,89.86
2017-09-17T01:41:09.384Z,89.57
2017-09-17T01:42:09.375Z,90.14
2017-09-17T01:43:09.376Z,89.86
2017-09-17T01:44:09.369Z,89.95
2017-09-17T01:45:09.370Z,90.05
2017-09-17T01:46:09.369Z,90.14
2017-09-17T01:47:09.369Z,89.67
2017-09-17T01:48:09.361Z,89.47
2017-09-17T01:49:09.356Z,90.23
2017-09-17T01:50:09.356Z,89.67
2017-09-17T01:51:09.355Z,90.23
2017-09-17T01:52:09.350Z,89.95
2017-09-17T01:53:09.346Z,89.95
2017-09-17T01:54:09.345Z,90.14
2017-09-17T01:55:09.341Z,89.95
2017-09-17T01:56:09.342Z,90.05
2017-09-17T01:57:09.335Z,90.05
2017-09-17T01:58:09.332Z,89.95
2017-09-17T01:59:09.326Z,90.05
2017-09-17T02:00:09.327Z,90.05
2017-09-17T02:01:09.323Z,90.14
2017-09-17T02:02:09.324Z,89.47
2017-09-17T02:03:09.319Z,88.71
2017-09-17T02:04:09.314Z,88.90
2017-09-17T02:05:09.313Z,89.57
2017-09-17T02:06:09.309Z,88.62
2017-09-17T02:07:09.307Z,89.28
2017-09-17T02:08:09.304Z,89.28
2017-09-17T02:09:09.302Z,89.28
2017-09-17T02:10:09.298Z,89.38
2017-09-17T02:11:09.293Z,89.09
2017-09-17T02:12:09.292Z,89.76
2017-09-17T02:13:09.288Z,89.67
2017-09-17T02:14:09.288Z,89.47
2017-09-17T02:15:09.282Z,89.67
2017-09-17T02:16:09.275Z,89.28
2017-09-17T02:17:09.278Z,89.47
2017-09-17T02:18:09.273Z,89.67
2017-09-17T02:19:09.268Z,89.57
2017-09-17T02:20:09.268Z,89.95
2017-09-17T02:21:09.265Z,90.05
2017-09-17T02:22:09.261Z,90.61
2017-09-17T02:23:09.259Z,90.33
2017-09-17T02:24:09.256Z,90.23
2017-09-17T02:25:09.249Z,90.33
2017-09-17T02:26:09.248Z,90.42
2017-09-17T02:27:09.243Z,90.71
2017-09-17T02:28:09.243Z,90.05
2017-09-17T02:29:09.240Z,90.05
2017-09-17T02:30:09.245Z,90.23
2017-09-17T02:31:09.239Z,89.76
2017-09-17T02:32:09.231Z,89.76
2017-09-17T02:33:09.224Z,89.86
2017-09-17T02:34:09.225Z,89.19
2017-09-17T02:35:09.222Z,89.76
2017-09-17T02:36:09.218Z,90.14
2017-09-17T02:37:09.218Z,89.95
2017-09-17T02:38:09.213Z,89.95
2017-09-17T02:39:09.210Z,90.05
2017-09-17T02:40:09.204Z,90.90
2017-09-17T02:41:09.211Z,90.05
2017-09-17T02:42:09.198Z,90.05
2017-09-17T02:43:09.197Z,90.14
2017-09-17T02:44:09.196Z,90.05
2017-09-17T02:45:09.194Z,90.14
2017-09-17T02:46:09.190Z,89.67
2017-09-17T02:47:09.185Z,89.67
2017-09-17T02:48:09.179Z,90.09
2017-09-17T02:49:09.181Z,90.05
2017-09-17T02:50:09.183Z,90.23
2017-09-17T02:51:09.173Z,90.05
2017-09-17T02:52:09.171Z,90.14
2017-09-17T02:53:09.168Z,90.05
2017-09-17T02:54:09.163Z,90.05
2017-09-17T02:55:09.158Z,89.76
2017-09-17T02:56:09.158Z,89.95
2017-09-17T02:57:09.154Z,89.67
2017-09-17T02:58:09.151Z,89.38
2017-09-17T02:59:09.145Z,89.00
2017-09-17T03:00:09.147Z,89.09
2017-09-17T03:01:09.141Z,89.09
2017-09-17T03:02:09.139Z,89.67
2017-09-17T03:03:09.130Z,89.19
2017-09-17T03:04:09.133Z,89.09
2017-09-17T03:05:09.131Z,89.09
2017-09-17T03:06:09.132Z,89.76
2017-09-17T03:07:09.125Z,89.67
2017-09-17T03:08:09.119Z,89.47
2017-09-17T03:09:09.118Z,89.76
2017-09-17T03:10:09.112Z,89.53
2017-09-17T03:11:09.112Z,89.90
2017-09-17T03:12:09.109Z,90.00
2017-09-17T03:13:09.105Z,90.19
2017-09-17T03:14:09.101Z,89.90
2017-09-17T03:15:09.095Z,90.42
2017-09-17T03:16:09.095Z,90.28
2017-09-17T03:17:09.088Z,90.57
2017-09-17T03:18:09.091Z,90.09
2017-09-17T03:19:09.079Z,90.19
2017-09-17T03:20:09.082Z,90.09
2017-09-17T03:21:09.077Z,89.90
2017-09-17T03:22:09.075Z,90.00
2017-09-17T03:23:09.071Z,90.38
2017-09-17T03:24:09.068Z,89.90
2017-09-17T03:25:09.065Z,90.09
2017-09-17T03:26:09.068Z,90.19
2017-09-17T03:27:09.059Z,90.19
2017-09-17T03:28:09.056Z,90.76
2017-09-17T03:29:09.052Z,90.57
2017-09-17T03:30:09.050Z,90.57
2017-09-17T03:31:09.046Z,90.66
2017-09-17T03:32:09.043Z,90.28
2017-09-17T03:33:09.040Z,90.47
2017-09-17T03:34:09.035Z,90.19
2017-09-17T03:35:09.032Z,90.09
2017-09-17T03:36:09.033Z,90.57
2017-09-17T03:37:09.023Z,90.66
2017-09-17T03:38:09.021Z,90.00
2017-09-17T03:39:09.024Z,90.09
2017-09-17T03:40:09.019Z,89.90
2017-09-17T03:41:09.013Z,90.09
2017-09-17T03:42:09.011Z,90.19
2017-09-17T03:43:09.001Z,89.90
2017-09-17T03:44:09.002Z,90.28
2017-09-17T03:45:09.000Z,90.57
2017-09-17T03:46:08.997Z,90.19
2017-09-17T03:47:08.992Z,90.28
2017-09-17T03:48:08.990Z,90.76
2017-09-17T03:49:08.986Z,90.66
2017-09-17T03:50:08.984Z,90.66
2017-09-17T03:51:08.985Z,90.85
2017-09-17T03:52:08.976Z,90.85
2017-09-17T03:53:08.975Z,90.57
2017-09-17T03:54:08.970Z,90.76
2017-09-17T03:55:08.967Z,90.95
2017-09-17T03:56:08.962Z,91.33
2017-09-17T03:57:08.960Z,91.14
2017-09-17T03:58:08.954Z,90.85
2017-09-17T03:59:08.953Z,91.04
2017-09-17T04:00:08.950Z,90.76
2017-09-17T04:01:08.947Z,90.19
2017-09-17T04:02:08.941Z,90.28
2017-09-17T04:03:08.939Z,90.09
2017-09-17T04:04:08.934Z,90.57
2017-09-17T04:05:08.931Z,90.76
2017-09-17T04:06:08.932Z,90.66
2017-09-17T04:07:08.924Z,90.95
2017-09-17T04:08:08.920Z,90.95
2017-09-17T04:09:08.918Z,90.95
2017-09-17T04:10:08.928Z,90.57
2017-09-17T04:11:08.914Z,90.47
2017-09-17T04:12:08.911Z,90.28
2017-09-17T04:13:08.909Z,90.57
2017-09-17T04:14:08.901Z,90.66
2017-09-17T04:15:08.898Z,90.57
2017-09-17T04:16:08.900Z,90.09
2017-09-17T04:17:08.891Z,90.28
2017-09-17T04:18:08.889Z,90.28
2017-09-17T04:19:08.887Z,90.19
2017-09-17T04:20:08.884Z,90.66
2017-09-17T04:21:08.877Z,90.09
2017-09-17T04:22:08.873Z,90.00
2017-09-17T04:23:08.866Z,89.90
2017-09-17T04:24:08.868Z,90.09
2017-09-17T04:25:08.865Z,90.28
2017-09-17T04:26:08.860Z,90.57
2017-09-17T04:27:08.871Z,90.28
2017-09-17T04:28:08.854Z,90.28
2017-09-17T04:29:08.852Z,90.09
2017-09-17T04:30:08.849Z,90.47
2017-09-17T04:31:08.849Z,90.76
2017-09-17T04:32:08.840Z,90.09
2017-09-17T04:33:08.837Z,90.47
2017-09-17T04:34:08.835Z,90.09
2017-09-17T04:35:08.831Z,90.09
2017-09-17T04:36:08.820Z,90.09
2017-09-17T04:37:08.828Z,89.81
2017-09-17T04:38:08.822Z,89.90
2017-09-17T04:39:08.817Z,90.00
2017-09-17T04:40:08.822Z,89.62
2017-09-17T04:41:08.813Z,90.00
2017-09-17T04:42:08.805Z,90.09
2017-09-17T04:43:08.805Z,89.72
2017-09-17T04:44:08.797Z,89.28
2017-09-17T04:45:08.798Z,89.76
2017-09-17T04:46:08.796Z,89.76
2017-09-17T04:47:08.790Z,89.76
2017-09-17T04:48:08.789Z,89.86
2017-09-17T04:49:08.785Z,89.72
2017-09-17T04:50:08.791Z,89.33
2017-09-17T04:51:08.780Z,90.00
2017-09-17T04:52:08.783Z,89.53
2017-09-17T04:53:08.777Z,89.67
2017-09-17T04:54:08.769Z,89.76
2017-09-17T04:55:08.765Z,89.67
2017-09-17T04:56:08.767Z,89.67
2017-09-17T04:57:08.759Z,89.47
2017-09-17T04:58:08.756Z,89.76
2017-09-17T04:59:08.751Z,89.38
2017-09-17T05:00:08.752Z,89.53
2017-09-17T05:01:08.747Z,89.47
2017-09-17T05:02:08.748Z,89.28
2017-09-17T05:03:08.741Z,89.47
2017-09-17T05:04:08.735Z,89.09
2017-09-17T05:05:08.737Z,89.00
2017-09-17T05:06:08.733Z,89.09
2017-09-17T05:07:08.727Z,88.90
2017-09-17T05:08:08.728Z,89.09
2017-09-17T05:09:08.722Z,89.19
2017-09-17T05:10:08.718Z,88.90
2017-09-17T05:11:08.714Z,88.90
2017-09-17T05:12:08.716Z,89.00
2017-09-17T05:13:08.708Z,89.28
2017-09-17T05:14:08.705Z,89.47
2017-09-17T05:15:08.705Z,89.47
2017-09-17T05:16:08.699Z,89.76
2017-09-17T05:17:08.696Z,89.67
2017-09-17T05:18:08.693Z,89.09
2017-09-17T05:19:08.693Z,89.47
2017-09-17T05:20:08.691Z,88.62
2017-09-17T05:21:08.690Z,88.81
2017-09-17T05:22:08.685Z,88.90
2017-09-17T05:23:08.679Z,88.90
2017-09-17T05:24:08.675Z,89.28
2017-09-17T05:25:08.676Z,88.62
2017-09-17T05:26:08.682Z,88.53
2017-09-17T05:27:08.669Z,88.71
2017-09-17T05:28:08.663Z,88.62
2017-09-17T05:29:08.661Z,87.86
2017-09-17T05:30:08.667Z,88.15
2017-09-17T05:31:08.658Z,87.86
2017-09-17T05:32:08.654Z,87.86
2017-09-17T05:33:08.650Z,87.67
2017-09-17T05:34:08.648Z,87.76
2017-09-17T05:35:08.648Z,87.19
2017-09-17T05:36:08.646Z,87.19
2017-09-17T05:37:08.637Z,86.91
2017-09-17T05:38:08.633Z,87.01
2017-09-17T05:39:08.633Z,87.05
2017-09-17T05:40:08.628Z,86.95
2017-09-17T05:41:08.626Z,87.19
2017-09-17T05:42:08.623Z,87.01
2017-09-17T05:43:08.622Z,87.24
2017-09-17T05:44:08.622Z,86.95
2017-09-17T05:45:08.622Z,86.38
2017-09-17T05:46:08.610Z,86.67
2017-09-17T05:47:08.616Z,86.38
2017-09-17T05:48:08.607Z,86.38
2017-09-17T05:49:08.607Z,85.81
2017-09-17T05:50:08.604Z,86.38
2017-09-17T05:51:08.601Z,86.29
2017-09-17T05:52:08.605Z,86.38
2017-09-17T05:53:08.605Z,85.91
2017-09-17T05:54:08.593Z,86.29
2017-09-17T05:55:08.592Z,85.91
2017-09-17T05:56:08.589Z,85.91
2017-09-17T05:57:08.587Z,85.24
2017-09-17T05:58:08.588Z,85.72
2017-09-17T05:59:08.581Z,85.53
2017-09-17T06:00:08.581Z,85.72
2017-09-17T06:01:08.578Z,85.53
2017-09-17T06:02:08.574Z,85.53
2017-09-17T06:03:08.572Z,85.43
2017-09-17T06:04:08.571Z,85.43
2017-09-17T06:05:08.569Z,85.15
2017-09-17T06:06:08.564Z,85.43
2017-09-17T06:07:08.565Z,85.43
2017-09-17T06:08:08.562Z,85.28
2017-09-17T06:09:08.558Z,85.05
2017-09-17T06:10:08.557Z,84.91
2017-09-17T06:11:08.555Z,84.72
2017-09-17T06:12:08.554Z,84.91
2017-09-17T06:13:08.557Z,85.00
2017-09-17T06:14:08.551Z,84.05
2017-09-17T06:15:08.547Z,84.05
2017-09-17T06:16:08.543Z,84.91
2017-09-17T06:17:08.548Z,84.81
2017-09-17T06:18:08.542Z,84.81
2017-09-17T06:19:08.538Z,84.72
2017-09-17T06:20:08.538Z,84.81
2017-09-17T06:21:08.538Z,84.72
2017-09-17T06:22:08.533Z,84.24
2017-09-17T06:23:08.530Z,84.43
2017-09-17T06:24:08.528Z,84.43
2017-09-17T06:25:08.528Z,84.52
2017-09-17T06:26:08.524Z,83.95
2017-09-17T06:27:08.527Z,83.86
2017-09-17T06:28:08.527Z,85.00
2017-09-17T06:29:08.515Z,85.19
2017-09-17T06:30:08.519Z,85.10
2017-09-17T06:31:08.515Z,84.43
2017-09-17T06:32:08.513Z,84.28
2017-09-17T06:33:08.510Z,84.38
2017-09-17T06:34:08.512Z,84.95
2017-09-17T06:35:08.510Z,85.24
2017-09-17T06:36:08.507Z,84.38
2017-09-17T06:37:08.506Z,84.00
2017-09-17T06:38:08.499Z,83.90
2017-09-17T06:39:08.503Z,83.42
2017-09-17T06:40:08.501Z,83.90
2017-09-17T06:41:08.499Z,83.62
2017-09-17T06:42:08.500Z,83.52
2017-09-17T06:43:08.497Z,82.67
2017-09-17T06:44:08.493Z,82.48
2017-09-17T06:45:08.493Z,82.76
2017-09-17T06:46:08.488Z,82.48
2017-09-17T06:47:08.492Z,83.04
2017-09-17T06:48:08.490Z,82.61
2017-09-17T06:49:08.486Z,82.23
2017-09-17T06:50:08.487Z,82.51
2017-09-17T06:51:08.486Z,82.61
2017-09-17T06:52:08.484Z,82.42
2017-09-17T06:53:08.498Z,82.42
2017-09-17T06:54:09.083Z,82.42
2017-09-17T06:55:08.484Z,82.51
2017-09-17T06:56:10.076Z,82.61
2017-09-17T06:57:08.516Z,82.32
2017-09-17T06:58:08.477Z,81.85
2017-09-17T06:59:08.478Z,82.04
2017-09-17T07:00:08.477Z,81.47
2017-09-17T07:01:08.475Z,81.56
2017-09-17T07:02:08.476Z,81.56
2017-09-17T07:03:08.479Z,82.04
2017-09-17T07:04:08.474Z,82.80
2017-09-17T07:05:08.479Z,82.51
2017-09-17T07:06:08.471Z,82.93
2017-09-17T07:07:08.471Z,84.17
2017-09-17T07:08:08.472Z,81.79
2017-09-17T07:09:08.471Z,79.99
2017-09-17T07:10:08.468Z,80.18
2017-09-17T07:11:08.468Z,80.46
2017-09-17T07:12:08.469Z,79.89
2017-09-17T07:13:08.469Z,81.32
2017-09-17T07:14:08.466Z,80.69
2017-09-17T07:15:08.466Z,79.74
2017-09-17T07:16:08.467Z,79.17
2017-09-17T07:17:08.468Z,78.69
2017-09-17T07:18:08.466Z,78.59
2017-09-17T07:19:08.461Z,78.50
2017-09-17T07:20:08.468Z,78.78
2017-09-17T07:21:08.466Z,78.59
2017-09-17T07:22:08.463Z,78.88
2017-09-17T07:23:08.466Z,78.03
2017-09-17T07:24:08.465Z,78.50
2017-09-17T07:25:08.464Z,77.93
2017-09-17T07:26:08.463Z,78.22
2017-09-17T07:27:08.464Z,78.31
2017-09-17T07:28:08.458Z,78.31
2017-09-17T07:29:08.468Z,78.59
2017-09-17T07:30:08.464Z,78.59
2017-09-17T07:31:08.462Z,78.31
2017-09-17T07:32:08.463Z,77.93
2017-09-17T07:33:08.468Z,78.22
2017-09-17T07:34:08.463Z,77.97
2017-09-17T07:35:08.463Z,78.92
2017-09-17T07:36:08.465Z,77.59
2017-09-17T07:37:08.463Z,77.30
2017-09-17T07:38:08.464Z,77.78
2017-09-17T07:39:08.466Z,77.49
2017-09-17T07:40:08.468Z,76.82
2017-09-17T07:41:08.467Z,77.01
2017-09-17T07:42:08.467Z,77.40
2017-09-17T07:43:08.469Z,77.01
2017-09-17T07:44:08.465Z,77.40
2017-09-17T07:45:08.468Z,77.30
2017-09-17T07:46:08.469Z,77.11
2017-09-17T07:47:08.467Z,77.11
2017-09-17T07:48:08.472Z,77.11
2017-09-17T07:49:08.470Z,77.01
2017-09-17T07:50:08.469Z,76.73
2017-09-17T07:51:08.470Z,76.67
2017-09-17T07:52:08.474Z,76.67
2017-09-17T07:53:08.473Z,76.39
2017-09-17T07:54:08.472Z,76.01
2017-09-17T07:55:08.475Z,76.29
2017-09-17T07:56:08.472Z,75.62
2017-09-17T07:57:08.473Z,75.91
2017-09-17T07:58:08.474Z,75.43
2017-09-17T07:59:08.476Z,75.62
2017-09-17T08:00:08.480Z,75.62
2017-09-17T08:01:08.479Z,75.53
2017-09-17T08:02:08.478Z,74.86
2017-09-17T08:03:08.480Z,75.15
2017-09-17T08:04:08.476Z,75.34
2017-09-17T08:05:08.482Z,75.43
2017-09-17T08:06:08.480Z,75.81
2017-09-17T08:07:08.480Z,75.91
2017-09-17T08:08:08.482Z,76.39
2017-09-17T08:09:08.483Z,76.39
2017-09-17T08:10:08.501Z,77.06
2017-09-17T08:11:08.484Z,76.96
2017-09-17T08:12:08.487Z,76.48
2017-09-17T08:13:08.492Z,76.20
2017-09-17T08:14:08.490Z,77.06
2017-09-17T08:15:08.488Z,77.06
2017-09-17T08:16:08.493Z,76.96
2017-09-17T08:17:08.497Z,76.77
2017-09-17T08:18:08.492Z,76.57
2017-09-17T08:19:08.491Z,76.71
2017-09-17T08:20:08.498Z,76.33
2017-09-17T08:21:08.495Z,75.85
2017-09-17T08:22:08.494Z,75.57
2017-09-17T08:23:08.498Z,75.09
2017-09-17T08:24:08.500Z,75.18
2017-09-17T08:25:08.508Z,74.84
2017-09-17T08:26:08.498Z,74.74
2017-09-17T08:27:08.499Z,74.08
2017-09-17T08:28:08.508Z,74.55
2017-09-17T08:29:08.503Z,73.88
2017-09-17T08:30:08.509Z,74.27
2017-09-17T08:31:08.505Z,73.41
2017-09-17T08:32:08.505Z,72.93
2017-09-17T08:33:08.508Z,72.20
2017-09-17T08:34:08.507Z,71.34
2017-09-17T08:35:08.513Z,71.72
2017-09-17T08:36:08.510Z,71.63
2017-09-17T08:37:08.513Z,71.44
2017-09-17T08:38:08.512Z,70.96
2017-09-17T08:39:08.522Z,71.06
2017-09-17T08:40:08.510Z,70.81
2017-09-17T08:41:08.517Z,70.71
2017-09-17T08:42:08.524Z,71.00
2017-09-17T08:43:08.525Z,70.04
2017-09-17T08:44:08.522Z,69.85
2017-09-17T08:45:08.525Z,69.41
2017-09-17T08:46:08.530Z,69.50
2017-09-17T08:47:08.528Z,68.93
2017-09-17T08:48:08.529Z,68.26
2017-09-17T08:49:08.534Z,67.78
2017-09-17T08:50:08.536Z,67.30
2017-09-17T08:51:08.540Z,67.30
2017-09-17T08:52:08.543Z,68.64
2017-09-17T08:53:08.539Z,67.49
2017-09-17T08:54:08.542Z,65.90
2017-09-17T08:55:08.546Z,65.14
2017-09-17T08:56:08.549Z,66.76
2017-09-17T08:57:08.554Z,67.05
2017-09-17T08:58:08.561Z,65.52
2017-09-17T08:59:08.556Z,64.75
2017-09-17T09:00:08.553Z,63.99
2017-09-17T09:01:08.563Z,64.09
2017-09-17T09:02:08.591Z,64.85
2017-09-17T09:03:08.569Z,63.89
2017-09-17T09:04:08.571Z,63.42
2017-09-17T09:05:08.588Z,63.03
2017-09-17T09:06:08.576Z,62.74
2017-09-17T09:07:08.579Z,62.55
2017-09-17T09:08:08.585Z,62.84
2017-09-17T09:09:08.587Z,63.13
2017-09-17T09:10:08.588Z,64.09
2017-09-17T09:11:08.602Z,64.66
2017-09-17T09:12:08.602Z,65.14
2017-09-17T09:13:08.605Z,65.39
2017-09-17T09:14:08.626Z,66.00
2017-09-17T09:15:08.609Z,65.23
2017-09-17T09:16:08.611Z,64.85
2017-09-17T09:17:08.614Z,64.56
2017-09-17T09:18:08.616Z,65.33
2017-09-17T09:19:08.619Z,65.14
2017-09-17T09:20:08.624Z,64.28
2017-09-17T09:21:08.626Z,63.60
2017-09-17T09:22:08.629Z,63.70
2017-09-17T09:23:08.636Z,64.09
2017-09-17T09:24:08.636Z,64.28
2017-09-17T09:25:08.640Z,64.09
2017-09-17T09:26:08.642Z,63.89
2017-09-17T09:27:08.649Z,63.99
2017-09-17T09:28:08.645Z,63.54
2017-09-17T09:29:08.652Z,62.68
2017-09-17T09:30:08.653Z,62.94
2017-09-17T09:31:08.658Z,62.77
2017-09-17T09:32:08.661Z,63.03
2017-09-17T09:33:08.668Z,62.65
2017-09-17T09:34:08.667Z,62.77
2017-09-17T09:35:08.672Z,62.74
2017-09-17T09:36:08.675Z,63.45
2017-09-17T09:37:08.678Z,61.51
2017-09-17T09:38:08.680Z,62.27
2017-09-17T09:39:08.683Z,62.11
2017-09-17T09:40:08.687Z,61.63
2017-09-17T09:41:08.690Z,59.62
2017-09-17T09:42:08.693Z,58.86
2017-09-17T09:43:08.763Z,57.99
2017-09-17T09:44:08.701Z,58.47
2017-09-17T09:45:08.706Z,58.76
2017-09-17T09:46:08.711Z,58.86
2017-09-17T09:47:08.711Z,58.63
2017-09-17T09:48:08.714Z,58.95
2017-09-17T09:49:08.719Z,58.25
2017-09-17T09:50:08.724Z,58.76
2017-09-17T09:51:08.726Z,59.01
2017-09-17T09:52:08.731Z,58.47
2017-09-17T09:53:08.737Z,57.90
2017-09-17T09:54:08.736Z,58.18
2017-09-17T09:55:08.739Z,58.37
2017-09-17T09:56:08.776Z,57.90
2017-09-17T09:57:08.744Z,55.98
2017-09-17T09:58:08.749Z,56.08
2017-09-17T09:59:08.754Z,55.19
2017-09-17T10:00:08.756Z,53.85
2017-09-17T10:01:08.802Z,54.71
2017-09-17T10:02:08.762Z,54.71
2017-09-17T10:03:08.767Z,55.29
2017-09-17T10:04:08.775Z,55.10
2017-09-17T10:05:08.777Z,56.34
2017-09-17T10:06:08.798Z,56.53
2017-09-17T10:07:08.817Z,56.43
2017-09-17T10:08:08.778Z,57.39
2017-09-17T10:09:08.800Z,57.29
2017-09-17T10:10:08.790Z,57.29
2017-09-17T10:11:08.788Z,57.10
2017-09-17T10:12:08.790Z,57.20
2017-09-17T10:13:08.808Z,57.39
2017-09-17T10:14:08.797Z,58.06
2017-09-17T10:15:08.802Z,57.58
2017-09-17T10:16:08.813Z,57.80
2017-09-17T10:17:08.807Z,58.37
2017-09-17T10:18:08.810Z,57.99
2017-09-17T10:19:08.812Z,57.70
2017-09-17T10:20:08.818Z,58.28
2017-09-17T10:21:08.817Z,57.83
2017-09-17T10:22:08.821Z,58.02
2017-09-17T10:23:08.827Z,58.02
2017-09-17T10:24:08.830Z,56.13
2017-09-17T10:25:08.835Z,55.75
2017-09-17T10:26:08.837Z,56.32
2017-09-17T10:27:08.839Z,55.65
2017-09-17T10:28:08.886Z,55.18
2017-09-17T10:29:08.850Z,54.41
2017-09-17T10:30:08.847Z,54.41
2017-09-17T10:31:08.852Z,54.44
2017-09-17T10:32:08.856Z,53.58
2017-09-17T10:33:08.865Z,53.19
2017-09-17T10:34:08.863Z,53.28
2017-09-17T10:35:08.879Z,53.41
2017-09-17T10:36:08.874Z,53.31
2017-09-17T10:37:08.877Z,53.22
2017-09-17T10:38:08.880Z,51.78
2017-09-17T10:39:08.881Z,52.26
2017-09-17T10:40:08.884Z,51.68
2017-09-17T10:41:08.893Z,51.14
2017-09-17T10:42:08.895Z,50.63
2017-09-17T10:43:08.902Z,50.24
2017-09-17T10:44:08.906Z,48.61
2017-09-17T10:45:08.911Z,49.29
2017-09-17T10:46:08.915Z,49.00
2017-09-17T10:47:08.920Z,48.43
2017-09-17T10:48:08.924Z,48.44
2017-09-17T10:49:08.932Z,49.86
2017-09-17T10:50:08.934Z,50.43
2017-09-17T10:51:08.945Z,51.59
2017-09-17T10:52:08.946Z,53.58
2017-09-17T10:53:08.956Z,56.35
2017-09-17T10:54:08.955Z,57.48
2017-09-17T10:55:08.962Z,57.67
2017-09-17T10:56:08.966Z,57.95
2017-09-17T10:57:08.971Z,58.72
2017-09-17T10:58:08.975Z,58.62
2017-09-17T10:59:08.981Z,58.53
2017-09-17T11:00:08.987Z,59.39
2017-09-17T11:01:08.989Z,58.91
2017-09-17T11:02:08.991Z,58.72
2017-09-17T11:03:09.001Z,58.72
2017-09-17T11:04:09.005Z,58.44
2017-09-17T11:05:09.008Z,57.95
2017-09-17T11:06:09.013Z,58.24
2017-09-17T11:07:09.019Z,58.27
2017-09-17T11:08:09.024Z,57.57
2017-09-17T11:09:09.028Z,58.24
2017-09-17T11:10:09.033Z,57.86
2017-09-17T11:11:09.038Z,58.44
2017-09-17T11:12:09.043Z,58.44
2017-09-17T11:13:09.055Z,58.44
2017-09-17T11:14:09.050Z,58.34
2017-09-17T11:15:09.052Z,58.24
2017-09-17T11:16:09.059Z,58.15
2017-09-17T11:17:09.063Z,58.62
2017-09-17T11:18:09.073Z,58.98
2017-09-17T11:19:09.075Z,58.40
2017-09-17T11:20:09.083Z,58.12
2017-09-17T11:21:09.082Z,56.59
2017-09-17T11:22:09.087Z,56.71
2017-09-17T11:23:09.104Z,57.19
2017-09-17T11:24:09.109Z,56.81
2017-09-17T11:25:09.108Z,57.19
2017-09-17T11:26:09.103Z,57.19
2017-09-17T11:27:09.106Z,56.52
2017-09-17T11:28:09.128Z,57.09
2017-09-17T11:29:09.115Z,56.32
2017-09-17T11:30:09.117Z,56.23
2017-09-17T11:31:09.116Z,56.26
2017-09-17T11:32:09.125Z,55.87
2017-09-17T11:33:09.132Z,55.40
2017-09-17T11:34:09.165Z,55.30
2017-09-17T11:35:09.138Z,55.01
2017-09-17T11:36:09.147Z,55.30
2017-09-17T11:37:09.148Z,54.44
2017-09-17T11:38:09.150Z,54.91
2017-09-17T11:39:09.154Z,54.63
2017-09-17T11:40:09.158Z,54.56
2017-09-17T11:41:09.168Z,53.79
2017-09-17T11:42:09.169Z,51.78
2017-09-17T11:43:09.171Z,51.97
2017-09-17T11:44:09.176Z,52.26
2017-09-17T11:45:09.184Z,53.31
2017-09-17T11:46:09.186Z,51.97
2017-09-17T11:47:09.189Z,51.68
2017-09-17T11:48:09.195Z,51.68
2017-09-17T11:49:09.200Z,51.87
2017-09-17T11:50:09.201Z,51.97
2017-09-17T11:51:09.209Z,51.59
2017-09-17T11:52:09.216Z,51.40
2017-09-17T11:53:09.221Z,51.97
2017-09-17T11:54:09.227Z,51.10
2017-09-17T11:55:09.228Z,51.49
2017-09-17T11:56:09.232Z,50.41
2017-09-17T11:57:09.236Z,51.08
2017-09-17T11:58:09.243Z,51.73
2017-09-17T11:59:09.245Z,51.82
2017-09-17T12:00:09.252Z,51.92
2017-09-17T12:01:09.257Z,52.40
2017-09-17T12:02:09.263Z,53.26
2017-09-17T12:03:09.266Z,52.33
2017-09-17T12:04:09.281Z,52.23
2017-09-17T12:05:09.273Z,52.23
2017-09-17T12:06:09.278Z,51.65
2017-09-17T12:07:09.285Z,50.32
2017-09-17T12:08:09.293Z,50.12
2017-09-17T12:09:09.289Z,50.22
2017-09-17T12:10:09.295Z,50.12
2017-09-17T12:11:09.302Z,49.84
2017-09-17T12:12:09.316Z,50.22
2017-09-17T12:13:09.307Z,50.12
2017-09-17T12:14:09.323Z,50.32
2017-09-17T12:15:09.318Z,49.36
2017-09-17T12:16:09.323Z,48.30
2017-09-17T12:17:09.327Z,47.53
2017-09-17T12:18:09.333Z,46.77
2017-09-17T12:19:09.336Z,46.79
2017-09-17T12:20:09.344Z,47.17
2017-09-17T12:21:09.347Z,47.27
2017-09-17T12:22:09.348Z,47.66
2017-09-17T12:23:09.352Z,47.56
2017-09-17T12:24:09.369Z,47.08
2017-09-17T12:25:09.363Z,46.98
2017-09-17T12:26:09.367Z,46.41
2017-09-17T12:27:09.372Z,46.12
2017-09-17T12:28:09.377Z,46.03
2017-09-17T12:29:09.381Z,46.05
2017-09-17T12:30:09.386Z,44.90
2017-09-17T12:31:09.443Z,45.00
2017-09-17T12:32:09.395Z,44.90
2017-09-17T12:33:09.405Z,45.57
2017-09-17T12:34:09.405Z,45.37
2017-09-17T12:35:09.417Z,45.76
2017-09-17T12:36:09.412Z,45.76
2017-09-17T12:37:09.424Z,47.10
2017-09-17T12:38:09.423Z,46.22
2017-09-17T12:39:09.423Z,46.12
2017-09-17T12:40:09.435Z,46.12
2017-09-17T12:41:09.476Z,46.50
2017-09-17T12:42:18.088Z,46.98
2017-09-17T12:44:29.046Z,46.22
2017-09-17T12:45:29.062Z,45.74
2017-09-17T12:47:22.534Z,45.07
2017-09-17T12:48:22.444Z,45.16
2017-09-17T12:50:16.870Z,45.36
2017-09-17T12:51:16.845Z,45.07
2017-09-17T12:53:10.278Z,45.45
2017-09-17T12:54:10.223Z,45.57
2017-09-17T12:56:03.620Z,45.47
2017-09-17T12:57:03.606Z,45.37
2017-09-17T12:58:58.012Z,45.00
2017-09-17T12:59:57.999Z,44.92
2017-09-17T13:01:51.400Z,44.63